createdAt,value
2019-05-26T00:01:43.717Z,13.97
2019-05-26T00:06:49.319Z,14.04
2019-05-26T00:11:54.908Z,13.67
2019-05-26T00:17:00.450Z,13.72
2019-05-26T00:22:06.553Z,13.79
2019-05-26T00:27:12.220Z,13.94
2019-05-26T00:32:17.775Z,13.83
2019-05-26T00:37:23.298Z,13.80
2019-05-26T00:42:29.959Z,13.48
2019-05-26T00:47:36.002Z,13.28
2019-05-26T00:52:45.695Z,12.83
2019-05-26T00:57:53.268Z,12.68
2019-05-26T01:02:58.376Z,12.84
2019-05-26T01:08:06.792Z,12.50
2019-05-26T01:13:12.173Z,12.40
2019-05-26T01:18:17.726Z,12.50
2019-05-26T01:23:27.316Z,12.57
2019-05-26T01:28:32.916Z,12.46
2019-05-26T01:33:38.418Z,12.66
2019-05-26T01:38:44.383Z,12.80
2019-05-26T01:43:49.974Z,12.92
2019-05-26T01:48:55.476Z,12.82
2019-05-26T01:54:01.681Z,12.71
2019-05-26T01:59:07.364Z,12.99
2019-05-26T02:04:12.921Z,12.67
2019-05-26T02:09:22.007Z,12.67
2019-05-26T02:14:28.532Z,12.70
2019-05-26T02:19:34.064Z,12.46
2019-05-26T02:24:41.751Z,12.34
2019-05-26T02:29:47.364Z,12.45
2019-05-26T02:34:52.916Z,12.19
2019-05-26T02:39:58.337Z,12.44
2019-05-26T02:45:08.744Z,12.29
2019-05-26T02:50:20.655Z,12.25
2019-05-26T02:55:23.507Z,12.15
2019-05-26T03:00:42.462Z,12.22
2019-05-26T03:05:48.897Z,12.31
2019-05-26T03:10:56.982Z,12.47
2019-05-26T03:16:05.107Z,12.53
2019-05-26T03:21:13.850Z,12.25
2019-05-26T03:26:23.353Z,12.29
2019-05-26T03:31:31.897Z,12.08
2019-05-26T03:36:37.429Z,12.33
2019-05-26T03:41:44.168Z,12.27
2019-05-26T03:46:49.662Z,12.55
2019-05-26T03:51:56.141Z,12.82
2019-05-26T03:57:03.099Z,12.43
2019-05-26T04:02:08.777Z,12.87
2019-05-26T04:07:14.313Z,12.76
2019-05-26T04:12:19.816Z,13.67
2019-05-26T04:17:25.956Z,13.47
2019-05-26T04:22:31.757Z,13.70
2019-05-26T04:27:37.360Z,13.87
2019-05-26T04:32:42.872Z,13.99
2019-05-26T04:37:48.406Z,15.45
2019-05-26T04:42:53.846Z,16.28
2019-05-26T04:47:59.276Z,16.54
2019-05-26T04:53:07.131Z,15.91
2019-05-26T04:58:13.376Z,16.68
2019-05-26T05:03:18.889Z,17.71
2019-05-26T05:08:25.033Z,17.91
2019-05-26T05:13:31.138Z,18.53
2019-05-26T05:18:42.446Z,19.14
2019-05-26T05:23:48.933Z,19.36
2019-05-26T05:28:54.782Z,18.85
2019-05-26T05:34:02.298Z,18.96
2019-05-26T05:39:10.200Z,19.46
2019-05-26T05:44:15.786Z,19.92
2019-05-26T05:49:21.248Z,19.22
2019-05-26T05:54:26.738Z,19.64
2019-05-26T05:59:32.265Z,20.35
2019-05-26T06:04:37.863Z,20.90
2019-05-26T06:09:43.396Z,20.55
2019-05-26T06:14:48.907Z,20.95
2019-05-26T06:19:55.584Z,20.87
2019-05-26T06:25:01.176Z,21.22
2019-05-26T06:30:09.037Z,20.47
2019-05-26T06:35:16.289Z,21.17
2019-05-26T06:40:21.968Z,21.92
2019-05-26T06:45:27.466Z,21.48
2019-05-26T06:50:35.366Z,20.93
2019-05-26T06:55:40.879Z,21.52
2019-05-26T07:00:46.497Z,20.68
2019-05-26T07:05:52.079Z,20.37
2019-05-26T07:10:59.845Z,19.60
2019-05-26T07:16:05.709Z,20.10
2019-05-26T07:21:14.133Z,19.86
2019-05-26T07:26:19.719Z,20.66
2019-05-26T07:31:27.170Z,20.19
2019-05-26T07:36:33.429Z,21.64
2019-05-26T07:41:39.395Z,19.52
2019-05-26T07:46:46.057Z,20.94
2019-05-26T07:51:51.755Z,21.21
2019-05-26T07:56:59.261Z,22.17
2019-05-26T08:02:05.358Z,22.69
2019-05-26T08:07:11.260Z,21.32
2019-05-26T08:12:26.899Z,20.70
2019-05-26T08:17:27.128Z,22.80
2019-05-26T08:22:32.727Z,23.35
2019-05-26T08:27:38.234Z,21.60
2019-05-26T08:32:47.757Z,21.67
2019-05-26T08:37:54.413Z,22.28
2019-05-26T08:42:59.975Z,20.83
2019-05-26T08:48:06.163Z,21.21
2019-05-26T08:53:19.654Z,22.45
2019-05-26T08:58:29.182Z,22.84
2019-05-26T09:03:35.006Z,22.79
2019-05-26T09:08:48.597Z,22.42
2019-05-26T09:13:52.871Z,23.16
2019-05-26T09:18:58.430Z,22.96
2019-05-26T09:24:04.151Z,22.67
2019-05-26T09:29:09.659Z,23.91
2019-05-26T09:34:17.712Z,24.24
2019-05-26T09:39:24.481Z,24.92
2019-05-26T09:44:30.112Z,23.95
2019-05-26T09:49:35.719Z,23.23
2019-05-26T09:54:41.320Z,24.43
2019-05-26T09:59:48.369Z,24.39
2019-05-26T10:04:54.351Z,24.90
2019-05-26T10:09:59.894Z,24.79
2019-05-26T10:15:10.118Z,23.93
2019-05-26T10:20:16.125Z,24.83
2019-05-26T10:25:23.601Z,24.77
2019-05-26T10:30:29.219Z,24.29
2019-05-26T10:35:34.948Z,24.28
2019-05-26T10:40:40.726Z,23.41
2019-05-26T10:45:47.404Z,23.98
2019-05-26T10:50:53.022Z,23.87
2019-05-26T10:56:01.222Z,25.00
2019-05-26T11:01:07.018Z,24.92
2019-05-26T11:06:12.738Z,24.59
2019-05-26T11:11:20.584Z,23.99
2019-05-26T11:16:26.158Z,23.99
2019-05-26T11:21:32.368Z,24.54
2019-05-26T11:26:38.317Z,23.31
2019-05-26T11:31:46.642Z,24.22
2019-05-26T11:36:53.516Z,24.63
2019-05-26T11:42:12.270Z,24.38
2019-05-26T11:47:06.405Z,24.10
2019-05-26T11:52:12.039Z,23.52
2019-05-26T11:57:17.636Z,24.49
2019-05-26T12:02:25.538Z,24.16
2019-05-26T12:07:31.338Z,24.44
2019-05-26T12:12:36.912Z,23.98
2019-05-26T12:17:42.861Z,22.72
2019-05-26T12:22:48.457Z,24.54
2019-05-26T12:27:54.462Z,23.95
2019-05-26T12:33:00.063Z,23.10
2019-05-26T12:38:07.951Z,24.19
2019-05-26T12:43:21.336Z,24.23
2019-05-26T12:48:26.823Z,23.68
2019-05-26T12:53:36.994Z,24.71
2019-05-26T12:58:43.960Z,24.78
2019-05-26T13:03:50.534Z,25.45
2019-05-26T13:08:56.023Z,24.94
2019-05-26T13:14:01.950Z,25.56
2019-05-26T13:19:10.242Z,25.85
2019-05-26T13:24:18.587Z,23.76
2019-05-26T13:29:25.736Z,25.18
2019-05-26T13:34:30.152Z,25.75
2019-05-26T13:39:35.686Z,25.09
2019-05-26T13:44:42.680Z,24.99
2019-05-26T13:49:48.233Z,25.51
2019-05-26T13:54:53.659Z,25.42
2019-05-26T13:59:59.159Z,25.20
2019-05-26T14:05:06.717Z,25.32
2019-05-26T14:10:12.744Z,25.25
2019-05-26T14:15:18.722Z,25.25
2019-05-26T14:20:32.728Z,25.10
2019-05-26T14:25:38.766Z,24.60
2019-05-26T14:30:44.285Z,24.78
2019-05-26T14:35:50.269Z,24.96
2019-05-26T14:40:55.855Z,25.37
2019-05-26T14:46:01.731Z,25.21
2019-05-26T14:51:07.498Z,25.04
2019-05-26T14:56:13.038Z,23.68
2019-05-26T15:01:18.689Z,25.08
2019-05-26T15:06:24.236Z,24.70
2019-05-26T15:11:29.790Z,24.92
2019-05-26T15:16:35.358Z,25.13
2019-05-26T15:21:40.950Z,24.42
2019-05-26T15:26:46.586Z,24.55
2019-05-26T15:31:52.188Z,24.71
2019-05-26T15:36:57.753Z,24.81
2019-05-26T15:42:03.544Z,24.76
2019-05-26T15:47:10.685Z,25.05
2019-05-26T16:47:21.998Z,24.55
2019-05-26T16:52:27.965Z,24.33
2019-05-26T16:57:33.425Z,24.31
2019-05-26T17:02:39.046Z,24.55
2019-05-26T17:07:44.594Z,24.49
2019-05-26T17:12:52.840Z,23.86
2019-05-26T17:17:58.423Z,24.04
2019-05-26T17:23:05.296Z,23.82
2019-05-26T17:28:11.027Z,24.14
2019-05-26T17:33:17.310Z,23.70
2019-05-26T17:38:22.886Z,23.84
2019-05-26T17:43:29.487Z,23.40
2019-05-26T17:48:35.548Z,23.53
2019-05-26T17:53:41.853Z,23.53
2019-05-26T17:58:48.128Z,23.62
2019-05-26T18:03:53.885Z,23.55
2019-05-26T18:09:00.471Z,23.25
2019-05-26T18:14:07.583Z,23.25
2019-05-26T18:19:13.654Z,23.09
2019-05-26T18:24:22.308Z,22.99
2019-05-26T18:29:29.854Z,23.06
2019-05-26T18:34:36.918Z,22.88
2019-05-26T18:39:42.588Z,22.67
2019-05-26T18:44:53.329Z,22.68
2019-05-26T18:50:01.855Z,22.49
2019-05-26T18:55:11.052Z,22.50
2019-05-26T19:00:18.481Z,22.13
2019-05-26T19:05:33.455Z,21.93
2019-05-26T19:10:35.364Z,21.62
2019-05-26T19:15:41.309Z,21.70
2019-05-26T19:20:48.829Z,21.38
2019-05-26T19:25:55.898Z,21.00
2019-05-26T19:31:01.585Z,20.97
2019-05-26T19:36:09.659Z,20.59
2019-05-26T19:41:18.769Z,20.55
2019-05-26T19:46:27.033Z,20.58
2019-05-26T19:51:34.136Z,20.55
2019-05-26T19:56:45.614Z,20.47
2019-05-26T20:01:52.929Z,20.16
2019-05-26T20:07:02.290Z,20.32
2019-05-26T20:12:11.332Z,19.99
2019-05-26T20:17:17.001Z,19.97
2019-05-26T20:22:24.527Z,19.99
2019-05-26T20:27:30.624Z,19.86
2019-05-26T20:32:37.644Z,19.83
2019-05-26T20:37:44.766Z,19.66
2019-05-26T20:42:50.568Z,19.58
2019-05-26T20:47:56.365Z,19.46
2019-05-26T20:53:02.441Z,19.44
2019-05-26T20:58:09.050Z,19.24
2019-05-26T21:03:14.700Z,19.49
2019-05-26T21:08:20.297Z,19.00
2019-05-26T21:13:28.102Z,19.02
2019-05-26T21:18:33.726Z,18.78
2019-05-26T21:23:39.789Z,18.51
2019-05-26T21:28:45.571Z,18.60
2019-05-26T21:33:52.445Z,18.74
2019-05-26T21:38:57.994Z,18.66
2019-05-26T21:44:03.573Z,18.08
2019-05-26T21:49:09.155Z,18.30
2019-05-26T21:54:15.015Z,17.97
2019-05-26T21:59:22.287Z,18.49
2019-05-26T22:04:27.734Z,18.26
2019-05-26T22:09:33.396Z,18.43
2019-05-26T22:14:38.986Z,18.17
2019-05-26T22:19:44.543Z,18.13
2019-05-26T22:24:49.996Z,18.17
2019-05-26T22:29:55.550Z,18.33
2019-05-26T22:35:01.064Z,18.01
2019-05-26T22:40:08.361Z,18.38
2019-05-26T22:45:13.968Z,17.90
2019-05-26T22:50:19.488Z,17.50
2019-05-26T22:55:25.055Z,17.53
2019-05-26T23:00:30.681Z,17.78
2019-05-26T23:05:36.221Z,17.86
2019-05-26T23:10:42.274Z,17.63
2019-05-26T23:15:47.814Z,17.51
2019-05-26T23:20:54.425Z,17.59
2019-05-26T23:25:59.932Z,17.59
2019-05-26T23:31:05.835Z,17.55
2019-05-26T23:36:11.487Z,17.64
2019-05-26T23:41:16.999Z,17.60
2019-05-26T23:46:22.417Z,17.41
2019-05-26T23:51:27.871Z,17.45
2019-05-26T23:56:33.303Z,17.44
